sensor_id;sensor_type;location;lat;lon;timestamp;temperature;humidity
53653;DHT22;39553;52.954;5.932;2023-03-23T00:07:44;10.20;99.90
53653;DHT22;39553;52.954;5.932;2023-03-23T00:10:24;9.50;99.90
53653;DHT22;39553;52.954;5.932;2023-03-23T00:13:37;10.30;99.90
53653;DHT22;39553;52.954;5.932;2023-03-23T00:16:24;10.20;99.90
53653;DHT22;39553;52.954;5.932;2023-03-23T00:19:12;11.20;99.90
53653;DHT22;39553;52.954;5.932;2023-03-23T00:25:46;9.90;99.90
53653;DHT22;39553;52.954;5.932;2023-03-23T00:28:47;10.20;99.90
53653;DHT22;39553;52.954;5.932;2023-03-23T00:31:49;9.50;99.90
53653;DHT22;39553;52.954;5.932;2023-03-23T00:34:54;9.30;99.90
53653;DHT22;39553;52.954;5.932;2023-03-23T00:40:56;9.40;99.90
53653;DHT22;39553;52.954;5.932;2023-03-23T00:46:43;9.40;99.90
53653;DHT22;39553;52.954;5.932;2023-03-23T01:06:51;10.00;99.90
53653;DHT22;39553;52.954;5.932;2023-03-23T01:09:42;10.00;99.90
53653;DHT22;39553;52.954;5.932;2023-03-23T01:12:32;9.50;99.90
53653;DHT22;39553;52.954;5.932;2023-03-23T01:18:59;9.60;99.90
53653;DHT22;39553;52.954;5.932;2023-03-23T01:21:56;10.20;99.90
53653;DHT22;39553;52.954;5.932;2023-03-23T01:25:07;10.20;99.90
53653;DHT22;39553;52.954;5.932;2023-03-23T01:28:14;10.30;99.90
53653;DHT22;39553;52.954;5.932;2023-03-23T01:33:52;10.30;99.90
53653;DHT22;39553;52.954;5.932;2023-03-23T01:37:01;10.00;99.90
53653;DHT22;39553;52.954;5.932;2023-03-23T01:39:37;10.30;99.90
53653;DHT22;39553;52.954;5.932;2023-03-23T01:42:13;10.30;99.90
53653;DHT22;39553;52.954;5.932;2023-03-23T01:48:24;10.30;99.90
53653;DHT22;39553;52.954;5.932;2023-03-23T01:54:31;10.40;99.90
53653;DHT22;39553;52.954;5.932;2023-03-23T01:57:07;10.60;99.90
53653;DHT22;39553;52.954;5.932;2023-03-23T01:59:45;10.30;99.90
53653;DHT22;39553;52.954;5.932;2023-03-23T02:02:29;10.40;99.90
53653;DHT22;39553;52.954;5.932;2023-03-23T02:05:04;10.30;99.90
53653;DHT22;39553;52.954;5.932;2023-03-23T02:07:39;10.20;99.90
53653;DHT22;39553;52.954;5.932;2023-03-23T02:10:14;10.30;99.90
53653;DHT22;39553;52.954;5.932;2023-03-23T02:12:52;11.00;99.90
53653;DHT22;39553;52.954;5.932;2023-03-23T02:15:31;10.70;99.90
53653;DHT22;39553;52.954;5.932;2023-03-23T02:36:50;10.20;99.90
53653;DHT22;39553;52.954;5.932;2023-03-23T02:39:31;9.80;99.90
53653;DHT22;39553;52.954;5.932;2023-03-23T02:42:39;10.20;99.90
53653;DHT22;39553;52.954;5.932;2023-03-23T02:45:17;10.20;99.90
53653;DHT22;39553;52.954;5.932;2023-03-23T02:47:48;10.40;99.90
53653;DHT22;39553;52.954;5.932;2023-03-23T02:50:44;10.30;99.90
53653;DHT22;39553;52.954;5.932;2023-03-23T02:53:18;10.20;99.90
53653;DHT22;39553;52.954;5.932;2023-03-23T02:56:32;10.30;99.90
53653;DHT22;39553;52.954;5.932;2023-03-23T02:59:18;10.60;99.90
53653;DHT22;39553;52.954;5.932;2023-03-23T03:01:54;10.30;99.90
53653;DHT22;39553;52.954;5.932;2023-03-23T03:04:31;9.90;99.90
53653;DHT22;39553;52.954;5.932;2023-03-23T03:13:12;10.30;99.90
53653;DHT22;39553;52.954;5.932;2023-03-23T03:16:29;10.30;99.90
53653;DHT22;39553;52.954;5.932;2023-03-23T03:19:29;10.50;99.90
53653;DHT22;39553;52.954;5.932;2023-03-23T03:29:11;9.90;99.90
53653;DHT22;39553;52.954;5.932;2023-03-23T03:32:21;10.60;99.90
53653;DHT22;39553;52.954;5.932;2023-03-23T03:35:02;10.30;99.90
53653;DHT22;39553;52.954;5.932;2023-03-23T03:37:38;10.20;99.90
53653;DHT22;39553;52.954;5.932;2023-03-23T03:40:21;10.20;99.90
53653;DHT22;39553;52.954;5.932;2023-03-23T03:43:11;10.90;99.90
53653;DHT22;39553;52.954;5.932;2023-03-23T03:45:37;9.80;99.90
53653;DHT22;39553;52.954;5.932;2023-03-23T03:48:10;10.00;99.90
53653;DHT22;39553;52.954;5.932;2023-03-23T03:50:39;10.00;99.90
53653;DHT22;39553;52.954;5.932;2023-03-23T03:53:13;9.90;99.90
53653;DHT22;39553;52.954;5.932;2023-03-23T03:55:53;9.80;99.90
53653;DHT22;39553;52.954;5.932;2023-03-23T03:58:39;9.70;99.90
53653;DHT22;39553;52.954;5.932;2023-03-23T04:01:09;9.90;99.90
53653;DHT22;39553;52.954;5.932;2023-03-23T04:03:54;10.00;99.90
53653;DHT22;39553;52.954;5.932;2023-03-23T04:06:36;11.30;99.90
53653;DHT22;39553;52.954;5.932;2023-03-23T04:09:21;10.00;99.90
53653;DHT22;39553;52.954;5.932;2023-03-23T04:11:50;10.20;99.90
53653;DHT22;39553;52.954;5.932;2023-03-23T04:14:16;10.10;99.90
53653;DHT22;39553;52.954;5.932;2023-03-23T04:17:00;10.10;99.90
53653;DHT22;39553;52.954;5.932;2023-03-23T04:19:26;9.30;99.90
53653;DHT22;39553;52.954;5.932;2023-03-23T04:22:00;10.00;99.90
53653;DHT22;39553;52.954;5.932;2023-03-23T04:24:41;9.80;99.90
53653;DHT22;39553;52.954;5.932;2023-03-23T04:27:41;9.10;99.90
53653;DHT22;39553;52.954;5.932;2023-03-23T04:30:21;9.90;99.90
53653;DHT22;39553;52.954;5.932;2023-03-23T04:32:51;9.80;99.90
53653;DHT22;39553;52.954;5.932;2023-03-23T04:35:24;9.10;99.90
53653;DHT22;39553;52.954;5.932;2023-03-23T04:37:52;9.70;99.90
53653;DHT22;39553;52.954;5.932;2023-03-23T04:40:19;9.00;99.90
53653;DHT22;39553;52.954;5.932;2023-03-23T04:42:47;9.90;99.90
53653;DHT22;39553;52.954;5.932;2023-03-23T04:45:23;9.80;99.90
53653;DHT22;39553;52.954;5.932;2023-03-23T04:47:51;9.90;99.90
53653;DHT22;39553;52.954;5.932;2023-03-23T04:50:44;9.80;99.90
53653;DHT22;39553;52.954;5.932;2023-03-23T04:53:11;9.60;99.90
53653;DHT22;39553;52.954;5.932;2023-03-23T04:55:42;9.80;99.90
53653;DHT22;39553;52.954;5.932;2023-03-23T04:58:11;8.70;99.90
53653;DHT22;39553;52.954;5.932;2023-03-23T05:00:44;9.30;99.90
53653;DHT22;39553;52.954;5.932;2023-03-23T05:03:23;9.60;99.90
53653;DHT22;39553;52.954;5.932;2023-03-23T05:05:53;9.50;99.90
53653;DHT22;39553;52.954;5.932;2023-03-23T05:08:20;8.90;99.90
53653;DHT22;39553;52.954;5.932;2023-03-23T05:11:21;9.40;99.90
53653;DHT22;39553;52.954;5.932;2023-03-23T05:13:52;9.40;99.90
53653;DHT22;39553;52.954;5.932;2023-03-23T05:16:18;9.40;99.90
53653;DHT22;39553;52.954;5.932;2023-03-23T05:19:04;9.50;99.90
53653;DHT22;39553;52.954;5.932;2023-03-23T05:21:38;9.40;99.90
53653;DHT22;39553;52.954;5.932;2023-03-23T05:24:10;9.40;99.90
53653;DHT22;39553;52.954;5.932;2023-03-23T05:26:45;9.50;99.90
53653;DHT22;39553;52.954;5.932;2023-03-23T05:29:21;9.40;99.90
53653;DHT22;39553;52.954;5.932;2023-03-23T05:31:49;9.40;99.90
53653;DHT22;39553;52.954;5.932;2023-03-23T05:34:19;9.40;99.90
53653;DHT22;39553;52.954;5.932;2023-03-23T05:36:50;10.00;99.90
53653;DHT22;39553;52.954;5.932;2023-03-23T05:39:30;9.20;99.90
53653;DHT22;39553;52.954;5.932;2023-03-23T05:42:01;8.70;99.90
53653;DHT22;39553;52.954;5.932;2023-03-23T05:44:36;9.20;99.90
53653;DHT22;39553;52.954;5.932;2023-03-23T05:47:05;9.30;99.90
53653;DHT22;39553;52.954;5.932;2023-03-23T05:49:38;9.30;99.90
53653;DHT22;39553;52.954;5.932;2023-03-23T05:52:10;9.30;99.90
53653;DHT22;39553;52.954;5.932;2023-03-23T05:54:38;9.40;99.90
53653;DHT22;39553;52.954;5.932;2023-03-23T05:57:07;9.40;99.90
53653;DHT22;39553;52.954;5.932;2023-03-23T05:59:54;9.30;99.90
53653;DHT22;39553;52.954;5.932;2023-03-23T06:02:35;9.40;99.90
53653;DHT22;39553;52.954;5.932;2023-03-23T06:05:07;9.30;99.90
53653;DHT22;39553;52.954;5.932;2023-03-23T06:07:45;9.40;99.90
53653;DHT22;39553;52.954;5.932;2023-03-23T06:10:18;9.40;99.90
53653;DHT22;39553;52.954;5.932;2023-03-23T06:12:49;9.40;99.90
53653;DHT22;39553;52.954;5.932;2023-03-23T06:15:18;9.40;99.90
53653;DHT22;39553;52.954;5.932;2023-03-23T06:17:51;9.40;99.90
53653;DHT22;39553;52.954;5.932;2023-03-23T06:20:24;9.50;99.90
53653;DHT22;39553;52.954;5.932;2023-03-23T06:23:00;9.50;99.90
53653;DHT22;39553;52.954;5.932;2023-03-23T06:25:32;9.50;99.90
53653;DHT22;39553;52.954;5.932;2023-03-23T06:28:01;9.60;99.90
53653;DHT22;39553;52.954;5.932;2023-03-23T06:30:27;9.60;99.90
53653;DHT22;39553;52.954;5.932;2023-03-23T06:32:58;10.10;99.90
53653;DHT22;39553;52.954;5.932;2023-03-23T06:35:31;9.70;99.90
53653;DHT22;39553;52.954;5.932;2023-03-23T06:38:17;9.60;99.90
53653;DHT22;39553;52.954;5.932;2023-03-23T06:40:46;9.70;99.90
53653;DHT22;39553;52.954;5.932;2023-03-23T06:43:17;9.70;99.90
53653;DHT22;39553;52.954;5.932;2023-03-23T06:45:58;9.70;99.90
53653;DHT22;39553;52.954;5.932;2023-03-23T06:48:27;9.20;99.90
53653;DHT22;39553;52.954;5.932;2023-03-23T06:51:02;9.70;99.90
53653;DHT22;39553;52.954;5.932;2023-03-23T06:53:49;9.80;99.90
53653;DHT22;39553;52.954;5.932;2023-03-23T06:56:27;9.80;99.90
53653;DHT22;39553;52.954;5.932;2023-03-23T07:01:51;9.70;99.90
53653;DHT22;39553;52.954;5.932;2023-03-23T07:04:17;9.80;99.90
53653;DHT22;39553;52.954;5.932;2023-03-23T07:06:43;8.90;99.90
53653;DHT22;39553;52.954;5.932;2023-03-23T07:09:08;9.90;99.90
53653;DHT22;39553;52.954;5.932;2023-03-23T07:11:34;9.80;99.90
53653;DHT22;39553;52.954;5.932;2023-03-23T07:14:01;9.90;99.90
53653;DHT22;39553;52.954;5.932;2023-03-23T07:16:28;9.50;99.90
53653;DHT22;39553;52.954;5.932;2023-03-23T07:18:54;10.00;99.90
53653;DHT22;39553;52.954;5.932;2023-03-23T07:21:20;9.90;99.90
53653;DHT22;39553;52.954;5.932;2023-03-23T07:23:46;9.90;99.90
53653;DHT22;39553;52.954;5.932;2023-03-23T07:26:12;10.00;99.90
53653;DHT22;39553;52.954;5.932;2023-03-23T07:28:39;10.00;99.90
53653;DHT22;39553;52.954;5.932;2023-03-23T07:31:07;10.20;99.90
53653;DHT22;39553;52.954;5.932;2023-03-23T07:33:36;9.50;99.90
53653;DHT22;39553;52.954;5.932;2023-03-23T07:36:04;10.30;99.90
53653;DHT22;39553;52.954;5.932;2023-03-23T07:38:32;10.30;99.90
53653;DHT22;39553;52.954;5.932;2023-03-23T07:40:59;10.90;99.90
53653;DHT22;39553;52.954;5.932;2023-03-23T07:43:25;10.30;99.90
53653;DHT22;39553;52.954;5.932;2023-03-23T07:45:51;10.30;99.90
53653;DHT22;39553;52.954;5.932;2023-03-23T07:48:17;10.60;99.90
53653;DHT22;39553;52.954;5.932;2023-03-23T07:50:43;10.40;99.90
53653;DHT22;39553;52.954;5.932;2023-03-23T07:53:09;10.30;99.90
53653;DHT22;39553;52.954;5.932;2023-03-23T07:55:36;10.40;99.90
53653;DHT22;39553;52.954;5.932;2023-03-23T07:58:02;10.40;99.90
53653;DHT22;39553;52.954;5.932;2023-03-23T08:00:31;10.40;99.90
53653;DHT22;39553;52.954;5.932;2023-03-23T08:02:58;10.30;99.90
53653;DHT22;39553;52.954;5.932;2023-03-23T08:05:25;10.50;99.90
53653;DHT22;39553;52.954;5.932;2023-03-23T08:07:55;10.40;99.90
53653;DHT22;39553;52.954;5.932;2023-03-23T08:10:22;10.50;99.90
53653;DHT22;39553;52.954;5.932;2023-03-23T08:12:53;10.40;99.90
53653;DHT22;39553;52.954;5.932;2023-03-23T08:15:22;10.40;99.90
53653;DHT22;39553;52.954;5.932;2023-03-23T08:17:53;10.50;99.90
53653;DHT22;39553;52.954;5.932;2023-03-23T08:20:19;9.90;99.90
53653;DHT22;39553;52.954;5.932;2023-03-23T08:22:53;10.60;99.90
53653;DHT22;39553;52.954;5.932;2023-03-23T08:25:22;10.60;99.90
53653;DHT22;39553;52.954;5.932;2023-03-23T08:27:49;10.70;99.90
53653;DHT22;39553;52.954;5.932;2023-03-23T08:30:18;10.00;99.90
53653;DHT22;39553;52.954;5.932;2023-03-23T08:32:51;10.70;99.90
53653;DHT22;39553;52.954;5.932;2023-03-23T08:35:23;10.70;99.90
53653;DHT22;39553;52.954;5.932;2023-03-23T08:37:50;10.80;99.90
53653;DHT22;39553;52.954;5.932;2023-03-23T08:40:18;10.80;99.90
53653;DHT22;39553;52.954;5.932;2023-03-23T08:42:46;11.10;99.90
53653;DHT22;39553;52.954;5.932;2023-03-23T08:45:16;11.30;99.90
53653;DHT22;39553;52.954;5.932;2023-03-23T08:47:44;11.70;99.90
53653;DHT22;39553;52.954;5.932;2023-03-23T08:50:15;12.10;99.90
53653;DHT22;39553;52.954;5.932;2023-03-23T08:52:42;12.30;99.90
53653;DHT22;39553;52.954;5.932;2023-03-23T08:55:12;12.50;99.90
53653;DHT22;39553;52.954;5.932;2023-03-23T08:57:41;12.50;99.90
53653;DHT22;39553;52.954;5.932;2023-03-23T09:00:14;12.60;99.90
53653;DHT22;39553;52.954;5.932;2023-03-23T09:02:44;12.60;99.90
53653;DHT22;39553;52.954;5.932;2023-03-23T09:05:14;12.80;99.90
53653;DHT22;39553;52.954;5.932;2023-03-23T09:07:55;12.50;99.90
53653;DHT22;39553;52.954;5.932;2023-03-23T09:10:31;13.10;99.90
53653;DHT22;39553;52.954;5.932;2023-03-23T09:13:05;12.80;99.90
53653;DHT22;39553;52.954;5.932;2023-03-23T09:15:56;13.20;99.90
53653;DHT22;39553;52.954;5.932;2023-03-23T09:18:22;13.40;99.90
53653;DHT22;39553;52.954;5.932;2023-03-23T09:20:50;13.40;99.90
53653;DHT22;39553;52.954;5.932;2023-03-23T09:23:24;14.00;99.90
53653;DHT22;39553;52.954;5.932;2023-03-23T09:25:56;13.60;99.90
53653;DHT22;39553;52.954;5.932;2023-03-23T09:28:30;13.50;99.90
53653;DHT22;39553;52.954;5.932;2023-03-23T09:31:00;13.80;99.90
53653;DHT22;39553;52.954;5.932;2023-03-23T09:33:41;14.00;99.90
53653;DHT22;39553;52.954;5.932;2023-03-23T09:36:19;14.10;99.90
53653;DHT22;39553;52.954;5.932;2023-03-23T09:38:48;14.00;99.90
53653;DHT22;39553;52.954;5.932;2023-03-23T09:41:44;13.90;99.90
53653;DHT22;39553;52.954;5.932;2023-03-23T09:52:56;14.60;99.90
53653;DHT22;39553;52.954;5.932;2023-03-23T09:55:27;14.20;99.90
53653;DHT22;39553;52.954;5.932;2023-03-23T10:00:41;13.60;99.90
53653;DHT22;39553;52.954;5.932;2023-03-23T10:03:21;13.70;99.90
53653;DHT22;39553;52.954;5.932;2023-03-23T10:05:53;13.80;99.90
53653;DHT22;39553;52.954;5.932;2023-03-23T10:08:26;14.20;99.90
53653;DHT22;39553;52.954;5.932;2023-03-23T10:14:29;14.30;99.90
53653;DHT22;39553;52.954;5.932;2023-03-23T10:17:18;14.40;99.90
53653;DHT22;39553;52.954;5.932;2023-03-23T10:25:31;14.60;99.90
53653;DHT22;39553;52.954;5.932;2023-03-23T10:28:11;14.40;99.90
53653;DHT22;39553;52.954;5.932;2023-03-23T10:30:52;14.60;99.90
53653;DHT22;39553;52.954;5.932;2023-03-23T10:39:01;15.00;99.90
53653;DHT22;39553;52.954;5.932;2023-03-23T10:41:30;15.40;99.90
53653;DHT22;39553;52.954;5.932;2023-03-23T10:43:57;15.60;99.90
53653;DHT22;39553;52.954;5.932;2023-03-23T10:49:06;15.60;99.90
53653;DHT22;39553;52.954;5.932;2023-03-23T10:51:41;15.60;99.90
53653;DHT22;39553;52.954;5.932;2023-03-23T10:54:08;15.30;99.90
53653;DHT22;39553;52.954;5.932;2023-03-23T10:56:41;15.50;99.90
53653;DHT22;39553;52.954;5.932;2023-03-23T10:59:17;15.80;99.90
53653;DHT22;39553;52.954;5.932;2023-03-23T11:01:50;15.90;99.90
53653;DHT22;39553;52.954;5.932;2023-03-23T11:04:18;15.80;99.90
53653;DHT22;39553;52.954;5.932;2023-03-23T11:06:48;15.70;99.90
53653;DHT22;39553;52.954;5.932;2023-03-23T11:09:51;15.60;99.90
53653;DHT22;39553;52.954;5.932;2023-03-23T11:12:18;15.50;99.90
53653;DHT22;39553;52.954;5.932;2023-03-23T11:14:49;15.10;99.90
53653;DHT22;39553;52.954;5.932;2023-03-23T11:20:11;14.50;99.90
53653;DHT22;39553;52.954;5.932;2023-03-23T11:22:38;14.50;99.90
53653;DHT22;39553;52.954;5.932;2023-03-23T11:25:05;14.50;99.90
53653;DHT22;39553;52.954;5.932;2023-03-23T11:27:32;14.70;99.90
53653;DHT22;39553;52.954;5.932;2023-03-23T11:30:22;14.80;99.90
53653;DHT22;39553;52.954;5.932;2023-03-23T11:32:49;14.60;99.90
53653;DHT22;39553;52.954;5.932;2023-03-23T11:35:31;14.30;99.90
53653;DHT22;39553;52.954;5.932;2023-03-23T11:37:58;14.20;99.90
53653;DHT22;39553;52.954;5.932;2023-03-23T11:40:33;14.10;99.90
53653;DHT22;39553;52.954;5.932;2023-03-23T11:43:14;13.90;99.90
53653;DHT22;39553;52.954;5.932;2023-03-23T11:45:56;14.10;99.90
53653;DHT22;39553;52.954;5.932;2023-03-23T11:50:57;13.90;99.90
53653;DHT22;39553;52.954;5.932;2023-03-23T11:53:57;14.00;99.90
53653;DHT22;39553;52.954;5.932;2023-03-23T11:56:43;14.20;99.90
53653;DHT22;39553;52.954;5.932;2023-03-23T11:59:53;14.50;99.90
53653;DHT22;39553;52.954;5.932;2023-03-23T12:22:29;14.40;99.90
53653;DHT22;39553;52.954;5.932;2023-03-23T12:25:21;13.70;99.90
53653;DHT22;39553;52.954;5.932;2023-03-23T12:33:34;14.30;99.90
53653;DHT22;39553;52.954;5.932;2023-03-23T12:45:19;13.90;99.90
53653;DHT22;39553;52.954;5.932;2023-03-23T12:48:00;13.70;99.90
53653;DHT22;39553;52.954;5.932;2023-03-23T12:50:30;13.60;99.90
53653;DHT22;39553;52.954;5.932;2023-03-23T12:53:15;13.30;99.90
53653;DHT22;39553;52.954;5.932;2023-03-23T12:56:02;13.90;99.90
53653;DHT22;39553;52.954;5.932;2023-03-23T12:58:34;14.00;99.90
53653;DHT22;39553;52.954;5.932;2023-03-23T13:01:10;14.30;99.90
53653;DHT22;39553;52.954;5.932;2023-03-23T13:03:44;14.30;99.90
53653;DHT22;39553;52.954;5.932;2023-03-23T13:06:29;14.20;99.90
53653;DHT22;39553;52.954;5.932;2023-03-23T13:09:43;14.60;99.90
53653;DHT22;39553;52.954;5.932;2023-03-23T13:12:17;14.80;99.90
53653;DHT22;39553;52.954;5.932;2023-03-23T13:18:02;15.40;99.90
53653;DHT22;39553;52.954;5.932;2023-03-23T13:20:37;15.30;99.90
53653;DHT22;39553;52.954;5.932;2023-03-23T13:23:12;15.20;99.90
53653;DHT22;39553;52.954;5.932;2023-03-23T13:25:51;15.20;99.90
53653;DHT22;39553;52.954;5.932;2023-03-23T13:28:28;15.40;99.90
53653;DHT22;39553;52.954;5.932;2023-03-23T13:34:04;15.00;99.90
53653;DHT22;39553;52.954;5.932;2023-03-23T13:36:44;15.30;99.90
53653;DHT22;39553;52.954;5.932;2023-03-23T13:39:23;16.40;99.90
53653;DHT22;39553;52.954;5.932;2023-03-23T13:42:24;15.60;99.90
53653;DHT22;39553;52.954;5.932;2023-03-23T13:47:28;15.20;99.90
53653;DHT22;39553;52.954;5.932;2023-03-23T13:53:01;14.70;99.90
53653;DHT22;39553;52.954;5.932;2023-03-23T13:55:42;14.70;99.90
53653;DHT22;39553;52.954;5.932;2023-03-23T13:58:10;15.80;99.90
53653;DHT22;39553;52.954;5.932;2023-03-23T14:01:09;15.30;99.90
53653;DHT22;39553;52.954;5.932;2023-03-23T14:03:47;15.30;99.90
53653;DHT22;39553;52.954;5.932;2023-03-23T14:06:25;14.80;99.90
53653;DHT22;39553;52.954;5.932;2023-03-23T14:12:57;14.30;99.90
53653;DHT22;39553;52.954;5.932;2023-03-23T14:16:22;14.50;99.90
53653;DHT22;39553;52.954;5.932;2023-03-23T14:20:00;13.80;99.90
53653;DHT22;39553;52.954;5.932;2023-03-23T14:22:42;14.20;99.90
53653;DHT22;39553;52.954;5.932;2023-03-23T14:26:00;13.60;99.90
53653;DHT22;39553;52.954;5.932;2023-03-23T14:28:42;14.10;99.90
53653;DHT22;39553;52.954;5.932;2023-03-23T14:31:26;14.00;99.90
53653;DHT22;39553;52.954;5.932;2023-03-23T14:34:13;13.80;99.90
53653;DHT22;39553;52.954;5.932;2023-03-23T14:36:50;14.00;99.90
53653;DHT22;39553;52.954;5.932;2023-03-23T14:39:29;13.90;99.90
53653;DHT22;39553;52.954;5.932;2023-03-23T14:42:05;14.00;99.90
53653;DHT22;39553;52.954;5.932;2023-03-23T14:44:38;14.00;99.90
53653;DHT22;39553;52.954;5.932;2023-03-23T14:47:15;14.10;99.90
53653;DHT22;39553;52.954;5.932;2023-03-23T14:49:51;14.10;99.90
53653;DHT22;39553;52.954;5.932;2023-03-23T14:52:22;13.80;99.90
53653;DHT22;39553;52.954;5.932;2023-03-23T14:54:55;14.00;99.90
53653;DHT22;39553;52.954;5.932;2023-03-23T14:59:50;14.80;99.90
53653;DHT22;39553;52.954;5.932;2023-03-23T15:02:29;13.40;99.90
53653;DHT22;39553;52.954;5.932;2023-03-23T15:05:16;14.10;99.90
53653;DHT22;39553;52.954;5.932;2023-03-23T15:07:53;14.10;99.90
53653;DHT22;39553;52.954;5.932;2023-03-23T15:10:33;14.10;99.90
53653;DHT22;39553;52.954;5.932;2023-03-23T15:13:23;14.20;99.90
53653;DHT22;39553;52.954;5.932;2023-03-23T15:16:20;14.30;99.90
53653;DHT22;39553;52.954;5.932;2023-03-23T15:18:51;14.20;99.90
53653;DHT22;39553;52.954;5.932;2023-03-23T15:21:29;14.40;99.90
53653;DHT22;39553;52.954;5.932;2023-03-23T15:23:56;14.50;99.90
53653;DHT22;39553;52.954;5.932;2023-03-23T15:26:42;14.50;99.90
53653;DHT22;39553;52.954;5.932;2023-03-23T15:29:21;14.60;99.90
53653;DHT22;39553;52.954;5.932;2023-03-23T15:31:57;14.70;99.90
53653;DHT22;39553;52.954;5.932;2023-03-23T15:34:56;14.80;99.90
53653;DHT22;39553;52.954;5.932;2023-03-23T15:37:31;14.80;99.90
53653;DHT22;39553;52.954;5.932;2023-03-23T15:40:05;14.80;99.90
53653;DHT22;39553;52.954;5.932;2023-03-23T15:42:41;14.80;99.90
53653;DHT22;39553;52.954;5.932;2023-03-23T15:45:27;14.30;99.90
53653;DHT22;39553;52.954;5.932;2023-03-23T15:48:09;14.50;99.90
53653;DHT22;39553;52.954;5.932;2023-03-23T15:50:56;13.80;99.90
53653;DHT22;39553;52.954;5.932;2023-03-23T15:53:32;14.50;99.90
53653;DHT22;39553;52.954;5.932;2023-03-23T15:56:13;14.80;99.90
53653;DHT22;39553;52.954;5.932;2023-03-23T16:01:57;14.70;99.90
53653;DHT22;39553;52.954;5.932;2023-03-23T16:04:26;14.20;99.90
53653;DHT22;39553;52.954;5.932;2023-03-23T16:06:59;14.30;99.90
53653;DHT22;39553;52.954;5.932;2023-03-23T16:09:39;14.30;99.90
53653;DHT22;39553;52.954;5.932;2023-03-23T16:12:26;14.30;99.90
53653;DHT22;39553;52.954;5.932;2023-03-23T16:14:52;14.10;99.90
53653;DHT22;39553;52.954;5.932;2023-03-23T16:17:29;13.60;99.90
53653;DHT22;39553;52.954;5.932;2023-03-23T16:20:28;14.20;99.90
53653;DHT22;39553;52.954;5.932;2023-03-23T16:23:01;14.30;99.90
53653;DHT22;39553;52.954;5.932;2023-03-23T16:26:03;14.10;99.90
53653;DHT22;39553;52.954;5.932;2023-03-23T16:28:53;13.80;99.90
53653;DHT22;39553;52.954;5.932;2023-03-23T16:31:26;13.80;99.90
53653;DHT22;39553;52.954;5.932;2023-03-23T16:34:18;13.50;99.90
53653;DHT22;39553;52.954;5.932;2023-03-23T16:36:46;13.50;99.90
53653;DHT22;39553;52.954;5.932;2023-03-23T16:42:25;13.40;99.90
53653;DHT22;39553;52.954;5.932;2023-03-23T16:45:26;12.90;99.90
53653;DHT22;39553;52.954;5.932;2023-03-23T16:47:55;13.20;99.90
53653;DHT22;39553;52.954;5.932;2023-03-23T16:50:54;13.10;99.90
53653;DHT22;39553;52.954;5.932;2023-03-23T16:53:31;13.00;99.90
53653;DHT22;39553;52.954;5.932;2023-03-23T16:56:23;13.00;99.90
53653;DHT22;39553;52.954;5.932;2023-03-23T16:59:34;12.90;99.90
53653;DHT22;39553;52.954;5.932;2023-03-23T17:02:13;12.80;99.90
53653;DHT22;39553;52.954;5.932;2023-03-23T17:05:12;12.40;99.90
53653;DHT22;39553;52.954;5.932;2023-03-23T17:11:41;12.80;99.90
53653;DHT22;39553;52.954;5.932;2023-03-23T17:14:37;12.10;99.90
53653;DHT22;39553;52.954;5.932;2023-03-23T17:17:04;12.60;99.90
53653;DHT22;39553;52.954;5.932;2023-03-23T17:30:31;12.30;99.90
53653;DHT22;39553;52.954;5.932;2023-03-23T17:33:52;11.90;99.90
53653;DHT22;39553;52.954;5.932;2023-03-23T17:36:33;12.40;99.90
53653;DHT22;39553;52.954;5.932;2023-03-23T17:42:58;12.30;99.90
53653;DHT22;39553;52.954;5.932;2023-03-23T17:45:43;12.20;99.90
53653;DHT22;39553;52.954;5.932;2023-03-23T17:55:23;12.10;99.90
53653;DHT22;39553;52.954;5.932;2023-03-23T17:59:18;12.10;99.90
53653;DHT22;39553;52.954;5.932;2023-03-23T18:03:05;11.60;99.90
53653;DHT22;39553;52.954;5.932;2023-03-23T18:09:11;12.10;99.90
53653;DHT22;39553;52.954;5.932;2023-03-23T18:12:27;12.00;99.90
53653;DHT22;39553;52.954;5.932;2023-03-23T18:18:33;11.90;99.90
53653;DHT22;39553;52.954;5.932;2023-03-23T18:33:00;11.00;99.90
53653;DHT22;39553;52.954;5.932;2023-03-23T18:47:29;11.50;99.90
53653;DHT22;39553;52.954;5.932;2023-03-23T18:51:01;11.30;99.90
53653;DHT22;39553;52.954;5.932;2023-03-23T19:01:01;11.30;99.90
53653;DHT22;39553;52.954;5.932;2023-03-23T19:18:50;11.40;99.90
53653;DHT22;39553;52.954;5.932;2023-03-23T19:22:31;11.40;99.90
53653;DHT22;39553;52.954;5.932;2023-03-23T19:26:17;11.50;99.90
53653;DHT22;39553;52.954;5.932;2023-03-23T21:28:06;10.60;99.90
53653;DHT22;39553;52.954;5.932;2023-03-23T21:30:45;10.60;99.90
53653;DHT22;39553;52.954;5.932;2023-03-23T21:33:29;10.60;99.90
53653;DHT22;39553;52.954;5.932;2023-03-23T21:38:53;10.80;99.90
53653;DHT22;39553;52.954;5.932;2023-03-23T21:41:25;10.70;99.90
53653;DHT22;39553;52.954;5.932;2023-03-23T21:43:58;10.10;99.90
53653;DHT22;39553;52.954;5.932;2023-03-23T21:46:31;10.80;99.90
53653;DHT22;39553;52.954;5.932;2023-03-23T21:49:02;10.80;99.90
